Aérodrome :
LOGIN :

S'inscrire | Disclaimer

   EN    FR    IT 

 










Légende :    VFR   VFR Marginal   IFR   IFR Intensif   IFR Très Intensif
Visi : 
Plafond : 
>= 8 km
>= 3000ft
5 à 8 km
1000 à 3000 ft
1500m à 5 km
500 à 1000 ft
800 à 1500m
200 à 500 ft
< 800m
< 200 ft
Symboles :   Orages  Brouillard  Fortes neiges  Fortes précipitations  Vent > 20 kt
SIGMETs :   Divers  Orages  Givrage  Turbulence  Onde Orograph.  Cendres Volcan.






- Altitude de l'aérodrome : 184 ft
- Code IATA : BRU


EBBR - Bruxelles

DERNIER METAR :
  • 161720Z 18009KT 6000 -FZRA -SN BKN012 BKN022 M01/M02 Q1017 R25L/290095 R01/290095 R25R/290095 TEMPO 3000 -FZRA -SN BKN008

METARs EXPIRÉS :
  • 161650Z 18009KT 4500 -SNRA BKN011 BKN022 M01/M02 Q1018 R25L/290095 R01/290095 R25R/290095 NOSIG
  • 161620Z 17010KT 3500 -SN BKN011 BKN023 M01/M03 Q1018 R25L/290095 R01/290095 R25R/290095 TEMPO 6000 -SN
  • 161550Z 17010KT 3500 -SN BKN010 BKN020 M01/M03 Q1018 TEMPO 2000 -SN BKN008
  • 161520Z 17009KT 4000 -SN FEW011 BKN022 M01/M03 Q1019 TEMPO 2000 FBLSN BKN008
  • 161450Z 17010KT 3000 -SN SCT009 BKN018 M01/M03 Q1020 TEMPO 2000 FBLSN BKN008

TAF TAF EBBR
Valide du 16 à 18h jusqu'au 18 à 00h UTC


161700Z 1618/1724 21008KT 6000 BKN008
TEMPO 1618/1622 2000 -SNRA BKN004
PROB40
TEMPO 1618/1622 -FZDZ
TEMPO 1622/1705 2500 DZ -DZRA BR BKN004
BECMG 1705/1707 SCT012 BKN020
PROB30
TEMPO 1708/1712 4000 SHRA SHRAGS



MET'MAP, la Météo Aéronautique d'un coup d'oeil ! - Copyright ORBIFLY Décembre 2007 - Disclaimer

ORBIFLY MET'MAP TEAM :

Programmation & Développement : Alexandra Zaïnal
Sur une idée originale de : Baudouin d'Aumeries
Assistance à la programmation : Marc-Olivier Méhu
Soutien technique & logistique : Manuel Goepfert

Contact : metmap@orbifly.com




SOURCES & CREDITS :

   NOAA